Time;durP1;ratioP1;P1;durP2;ratioP2;P2;SDS_P1;SDS_P2;PMS_P1;PMS_P2;Temp;Humidity;BMP_temperature;BMP_pressure;BME280_temperature;BME280_humidity;BME280_pressure;Samples;Min_cycle;Max_cycle;Signal;HPM_P1;HPM_P2
2022/08/15 00:03:40;;;;;;;6.57;5.97;;;22.60;71.40;;;21.29;58.85;99201.75;10263147;28;97456;-85
2022/08/15 00:09:07;;;;;;;7.90;5.80;;;22.50;72.40;;;21.21;58.77;99200.34;10255387;28;96722;-85
2022/08/15 00:14:36;;;;;;;6.25;5.65;;;22.40;72.20;;;21.13;59.13;99190.03;10268539;28;98478;-85
2022/08/15 00:19:47;;;;;;;6.25;5.65;;;22.30;72.40;;;21.06;59.31;99201.06;10269773;28;97358;-85
2022/08/15 00:24:51;;;;;;;7.22;5.88;;;22.30;72.60;;;21.01;59.43;99200.22;10257363;28;96972;-84
2022/08/15 00:29:56;;;;;;;6.55;5.57;;;22.20;72.70;;;20.95;59.93;99198.56;10282305;28;98023;-85
2022/08/15 00:35:01;;;;;;;5.72;4.80;;;22.10;73.10;;;20.84;59.93;99184.16;10269496;28;96904;-84
2022/08/15 00:40:10;;;;;;;5.77;5.17;;;22.10;73.30;;;20.80;60.02;99191.97;10255129;28;97382;-84
2022/08/15 00:45:23;;;;;;;8.05;6.18;;;22.00;73.20;;;20.77;60.34;99189.78;10253186;28;98372;-85
2022/08/15 00:50:37;;;;;;;5.88;5.20;;;22.10;73.30;;;20.75;60.17;99200.06;10262061;28;98027;-85
2022/08/15 00:55:46;;;;;;;6.15;4.82;;;22.10;73.40;;;20.75;60.01;99201.91;10266681;28;96641;-85
2022/08/15 01:00:54;;;;;;;6.07;5.47;;;22.00;73.60;;;20.69;60.73;99219.97;10265201;28;97026;-84
2022/08/15 01:06:00;;;;;;;5.90;4.88;;;22.00;73.80;;;20.63;60.95;99212.06;10250899;28;98539;-85
2022/08/15 01:11:31;;;;;;;7.22;5.60;;;21.90;74.00;;;20.55;60.93;99214.19;10287766;28;98040;-85
2022/08/15 01:16:40;;;;;;;6.53;5.93;;;21.80;74.40;;;20.45;61.74;99208.72;10271819;28;98337;-85
2022/08/15 01:21:50;;;;;;;5.97;4.93;;;21.70;74.90;;;20.31;61.81;99210.16;10261013;28;97411;-85
2022/08/15 01:26:58;;;;;;;7.28;6.22;;;21.50;75.40;;;20.16;62.34;99215.41;10290703;28;97190;-84
2022/08/15 01:32:02;;;;;;;6.65;5.75;;;21.40;75.90;;;20.01;62.37;99210.66;10266771;28;96597;-85
2022/08/15 01:37:05;;;;;;;9.75;5.80;;;21.30;75.90;;;19.96;62.79;99207.91;10242049;28;96697;-84
2022/08/15 01:42:25;;;;;;;6.40;5.65;;;21.30;76.00;;;20.01;63.16;99210.66;10271603;28;96733;-85
2022/08/15 01:48:08;;;;;;;6.10;5.50;;;21.30;76.30;;;20.04;63.51;99213.66;10265151;28;97332;-84
2022/08/15 01:53:38;;;;;;;6.55;5.55;;;21.30;76.50;;;20.04;63.40;99216.38;10270240;28;98642;-85
2022/08/15 01:58:43;;;;;;;7.35;5.68;;;21.30;76.60;;;19.99;63.42;99204.72;10273438;28;98067;-85
2022/08/15 02:03:48;;;;;;;6.97;5.85;;;21.30;77.00;;;19.93;63.81;99211.94;10272021;28;97335;-85
2022/08/15 02:08:55;;;;;;;7.60;6.18;;;21.20;77.50;;;19.85;64.15;99212.38;10269514;28;97133;-85
2022/08/15 02:13:59;;;;;;;6.65;5.82;;;21.10;77.70;;;19.82;64.75;99212.88;10260661;28;98219;-84
2022/08/15 02:19:06;;;;;;;5.75;5.07;;;21.20;77.80;;;19.80;64.16;99204.25;10255427;28;97250;-85
2022/08/15 02:24:23;;;;;;;7.50;5.25;;;21.10;77.90;;;19.69;64.29;99207.88;10267729;28;98470;-85
2022/08/15 02:29:29;;;;;;;6.65;5.47;;;21.00;78.30;;;19.59;64.53;99207.75;10270078;28;96921;-85
2022/08/15 02:34:34;;;;;;;6.25;5.63;;;20.90;78.80;;;19.57;64.89;99209.84;10269081;28;98767;-84
2022/08/15 02:39:52;;;;;;;5.95;5.35;;;20.90;79.10;;;19.56;64.85;99194.75;10284593;28;97001;-84
2022/08/15 02:45:15;;;;;;;8.23;5.65;;;20.90;79.30;;;19.56;65.20;99189.38;10271130;28;96710;-84
2022/08/15 02:50:22;;;;;;;6.50;5.88;;;20.80;79.30;;;19.59;65.10;99189.69;10274100;28;96646;-85
2022/08/15 02:55:25;;;;;;;7.72;6.13;;;20.90;79.40;;;19.62;65.05;99191.09;10251515;28;96977;-84
2022/08/15 03:00:32;;;;;;;7.03;6.32;;;20.90;79.50;;;19.60;65.16;99188.63;10275560;28;98074;-83
2022/08/15 03:05:42;;;;;;;6.43;5.75;;;20.90;79.60;;;19.59;65.15;99196.97;10255506;28;96607;-85
2022/08/15 03:10:45;;;;;;;8.88;7.82;;;20.90;79.80;;;19.50;65.24;99201.97;10272616;28;98613;-84
2022/08/15 03:15:56;;;;;;;7.00;6.30;;;20.80;80.10;;;19.41;66.11;99209.63;10255925;28;96860;-85
2022/08/15 03:21:07;;;;;;;6.53;5.93;;;20.80;80.50;;;19.40;66.03;99213.41;10269457;28;97516;-84
2022/08/15 03:26:12;;;;;;;;;;;20.80;80.70;;;19.38;66.31;99218.22;10266346;28;98555;-84
2022/08/15 03:31:35;;;;;;;7.05;6.18;;;20.70;81.20;;;19.25;66.48;99208.63;10254936;28;97226;-87
2022/08/15 03:36:46;;;;;;;7.13;6.00;;;20.60;81.90;;;19.13;67.20;99212.47;10268611;28;98356;-85
2022/08/15 03:41:54;;;;;;;7.97;6.25;;;20.50;82.50;;;19.07;68.03;99205.38;10256049;28;96695;-85
2022/08/15 03:46:58;;;;;;;6.38;5.78;;;20.30;83.50;;;19.06;68.33;99214.53;10255264;28;97333;-86
2022/08/15 03:52:07;;;;;;;6.50;5.90;;;20.30;83.90;;;19.10;68.25;99216.50;10267818;28;96659;-86
2022/08/15 03:57:10;;;;;;;6.65;5.97;;;20.30;83.90;;;19.14;68.38;99219.50;10251502;28;98808;-86
2022/08/15 04:02:25;;;;;;;7.60;6.32;;;20.40;83.90;;;19.18;68.00;99223.31;10257010;28;96690;-86
2022/08/15 04:07:33;;;;;;;7.43;6.43;;;20.40;84.00;;;19.21;68.49;99228.22;10272624;28;96717;-86
2022/08/15 04:12:44;;;;;;;6.95;6.10;;;20.50;84.80;;;19.28;68.35;99234.25;10273022;28;97326;-86
2022/08/15 04:17:48;;;;;;;7.68;6.32;;;20.60;84.40;;;19.32;68.67;99235.41;10254922;28;97051;-86
2022/08/15 04:23:00;;;;;;;16.38;11.85;;;20.60;84.50;;;19.39;68.27;99241.41;10249930;28;97556;-85
2022/08/15 04:28:06;;;;;;;8.98;6.93;;;20.70;84.70;;;19.45;68.27;99245.81;10293747;28;97363;-85
2022/08/15 04:33:31;;;;;;;7.25;5.82;;;20.70;84.70;;;19.53;68.23;99231.88;10251619;28;98118;-84
2022/08/15 04:38:55;;;;;;;8.48;5.35;;;20.80;84.90;;;19.61;68.43;99217.22;10283808;28;97595;-85
2022/08/15 04:43:58;;;;;;;7.35;6.38;;;20.90;85.00;;;19.76;68.21;99224.66;10292623;28;97464;-85
2022/08/15 04:49:01;;;;;;;6.28;5.65;;;21.00;85.10;;;19.95;67.84;99225.97;10266592;28;96816;-85
2022/08/15 04:54:05;;;;;;;7.55;5.78;;;21.10;84.90;;;20.15;67.48;99232.63;10273772;28;98189;-85
2022/08/15 04:59:10;;;;;;;8.15;5.90;;;21.30;84.50;;;20.33;67.10;99224.19;10269938;28;98339;-85
2022/08/15 05:04:34;;;;;;;7.80;5.43;;;21.50;84.30;;;20.44;66.61;99217.81;10266683;28;98242;-85
2022/08/15 05:09:38;;;;;;;6.93;5.90;;;21.60;83.90;;;20.52;66.24;99208.50;10266703;28;98128;-85
2022/08/15 05:15:02;;;;;;;11.05;9.77;;;21.70;83.70;;;20.67;66.09;99213.19;10280777;28;98472;-85
2022/08/15 05:20:08;;;;;;;6.70;6.03;;;21.80;83.60;;;20.82;65.81;99211.44;10291464;28;96675;-85
2022/08/15 05:25:11;;;;;;;6.57;5.57;;;22.00;83.40;;;21.02;65.92;99209.94;10279394;28;97460;-85
2022/08/15 05:30:15;;;;;;;5.45;4.95;;;22.20;83.20;;;21.31;65.17;99205.84;10288263;28;97663;-84
2022/08/15 05:35:20;;;;;;;5.80;5.22;;;22.50;82.60;;;21.61;64.55;99215.97;10267623;28;96741;-85
2022/08/15 05:40:24;;;;;;;7.60;5.10;;;22.80;82.30;;;21.88;64.13;99212.28;10285635;28;97752;-85
2022/08/15 05:45:51;;;;;;;7.43;5.82;;;23.00;81.80;;;22.10;63.18;99204.00;10287370;28;96554;-84
2022/08/15 05:51:25;;;;;;;6.82;5.55;;;23.30;81.10;;;22.37;62.87;99214.56;10269087;28;98822;-84
2022/08/15 05:56:52;;;;;;;6.45;5.10;;;23.50;80.70;;;22.65;61.30;99224.88;10288531;28;98856;-85
2022/08/15 06:02:06;;;;;;;6.97;5.45;;;23.80;79.40;;;22.94;59.40;99214.34;10277331;28;97932;-85
2022/08/15 06:07:31;;;;;;;9.35;5.40;;;24.10;77.60;;;23.26;57.69;99210.47;10274372;28;98696;-84
2022/08/15 06:13:41;;;;;;;9.55;5.30;;;24.40;75.90;;;23.60;56.74;99207.13;10281649;28;98040;-84
2022/08/15 06:18:46;;;;;;;8.25;5.68;;;24.80;74.80;;;23.83;55.53;99213.84;10261366;28;97105;-85
2022/08/15 06:24:07;;;;;;;9.57;5.30;;;25.00;73.10;;;24.11;54.49;99207.75;10281341;28;97580;-85
2022/08/15 06:29:26;;;;;;;8.90;5.15;;;25.30;72.20;;;24.36;53.14;99206.78;10272325;28;97450;-86
2022/08/15 06:35:15;;;;;;;6.95;5.18;;;25.50;71.30;;;24.66;52.97;99207.66;10286911;28;99469;-84
2022/08/15 06:40:48;;;;;;;8.45;5.53;;;25.80;70.70;;;24.95;52.24;99207.63;10282962;28;97059;-84
2022/08/15 06:45:59;;;;;;;12.98;6.13;;;26.10;69.90;;;25.12;51.04;99202.59;10268800;28;97489;-85
2022/08/15 06:51:06;;;;;;;7.45;5.20;;;26.30;68.50;;;25.32;50.50;99204.31;10272558;28;96648;-84
2022/08/15 06:56:38;;;;;;;9.40;4.97;;;26.50;67.80;;;25.58;50.55;99204.81;10271725;28;97505;-84
2022/08/15 07:02:27;;;;;;;7.65;5.35;;;26.70;67.60;;;25.86;50.02;99198.50;10267419;28;98392;-84
2022/08/15 07:08:03;;;;;;;6.95;5.38;;;27.00;67.20;;;26.16;48.68;99193.75;10270578;28;96910;-84
2022/08/15 07:13:24;;;;;;;6.57;5.53;;;27.30;65.90;;;26.36;48.24;99198.06;10282324;28;98255;-85
2022/08/15 07:18:34;;;;;;;;;;;27.50;65.40;;;26.59;47.93;99202.63;10267105;28;97268;-84
2022/08/15 07:24:03;;;;;;;6.80;5.78;;;27.70;65.00;;;26.54;47.72;99212.78;10279328;28;96951;-84
2022/08/15 07:29:54;;;;;;;7.32;5.65;;;27.80;64.70;;;26.40;48.53;99210.81;10274567;28;96760;-85
2022/08/15 07:35:20;;;;;;;16.35;6.07;;;27.80;64.90;;;26.39;49.42;99211.91;10251054;28;97051;-84
2022/08/15 07:40:34;;;;;;;12.30;5.93;;;27.70;65.70;;;26.38;49.18;99207.53;10269936;28;99077;-85
2022/08/15 07:45:41;;;;;;;9.57;6.20;;;27.70;65.70;;;26.39;49.60;99201.00;10234935;28;96552;-84
2022/08/15 07:51:01;;;;;;;11.10;6.68;;;27.70;65.90;;;26.44;49.29;99204.78;10273698;28;97311;-84
2022/08/15 07:56:16;;;;;;;8.27;6.32;;;27.70;65.90;;;26.39;49.53;99203.75;10276257;28;96574;-85
2022/08/15 08:01:39;;;;;;;9.80;7.03;;;27.70;65.90;;;26.35;49.38;99199.16;10289919;28;97012;-84
2022/08/15 08:06:55;;;;;;;8.27;6.43;;;27.70;65.50;;;26.44;49.72;99204.78;10264688;28;97303;-85
2022/08/15 08:12:26;;;;;;;10.45;6.38;;;27.70;65.80;;;26.55;49.53;99200.78;10261531;28;97078;-84
2022/08/15 08:18:03;;;;;;;7.45;6.15;;;27.80;65.80;;;26.76;48.96;99201.28;10331137;28;98232;-84
2022/08/15 08:23:40;;;;;;;10.38;6.30;;;28.00;65.70;;;26.94;48.30;99203.13;10280420;28;96946;-84
2022/08/15 08:29:19;;;;;;;9.20;6.00;;;28.10;64.60;;;27.26;47.82;99193.28;10289258;28;96597;-84
2022/08/15 08:34:33;;;;;;;8.02;5.70;;;28.40;64.30;;;27.72;45.70;99191.28;10276497;28;96821;-84
2022/08/15 08:45:52;;;;;;;11.38;6.35;;;29.20;61.00;;;28.46;44.11;99193.72;10296373;28;96646;-84
2022/08/15 08:51:38;;;;;;;8.37;6.13;;;29.50;61.20;;;28.65;42.10;99181.78;10308326;28;96604;-84
2022/08/15 08:56:47;;;;;;;5.78;5.10;;;29.80;59.30;;;28.80;40.58;99179.50;10246608;28;98178;-85
2022/08/15 09:02:27;;;;;;;6.57;5.13;;;30.00;57.90;;;29.11;40.49;99173.22;10279468;28;96603;-84
2022/08/15 09:07:37;;;;;;;6.07;5.47;;;30.30;57.70;;;29.08;39.56;99167.56;10293231;28;96584;-84
2022/08/15 09:18:20;;;;;;;8.48;5.00;;;30.40;56.50;;;29.46;39.10;99160.47;10286704;28;96615;-84
2022/08/15 09:23:24;;;;;;;7.68;4.40;;;30.70;55.90;;;29.73;37.53;99158.63;10282222;28;96889;-84
2022/08/15 09:29:03;;;;;;;6.10;5.00;;;30.90;54.90;;;29.96;37.12;99135.44;10292546;28;96605;-84
2022/08/15 09:34:51;;;;;;;5.13;4.63;;;31.10;55.00;;;30.30;36.05;99139.34;10259445;28;96768;-84
2022/08/15 09:41:00;;;;;;;5.00;4.47;;;31.40;53.60;;;30.54;35.70;99139.63;10284418;28;96586;-84
2022/08/15 09:47:00;;;;;;;5.45;4.50;;;31.70;53.60;;;30.88;34.82;99132.44;10160339;28;96665;-83
2022/08/15 09:52:57;;;;;;;5.35;4.80;;;32.00;52.30;;;31.07;34.52;99137.56;10290519;28;98037;-84
2022/08/15 09:58:22;;;;;;;8.57;4.55;;;32.20;52.00;;;31.26;33.96;99128.94;10245382;28;98768;-84
2022/08/15 10:03:43;;;;;;;9.25;4.95;;;32.50;51.60;;;31.43;33.46;99118.66;10260598;28;96511;-84
2022/08/15 10:08:53;;;;;;;5.22;4.72;;;32.60;51.10;;;31.34;33.26;99101.44;10292214;28;96638;-84
2022/08/15 10:14:19;;;;;;;4.75;4.30;;;32.60;50.30;;;31.58;32.55;99094.50;10294223;28;96527;-85
2022/08/15 10:19:34;;;;;;;5.45;4.25;;;32.70;49.70;;;31.81;32.08;99090.31;10294572;28;96520;-85
2022/08/15 10:24:44;;;;;;;6.40;4.95;;;33.00;49.20;;;32.18;31.71;99090.47;10270904;28;97501;-85
2022/08/15 10:30:15;;;;;;;6.97;4.20;;;33.30;48.70;;;32.38;31.06;99084.13;10292845;28;96770;-85
2022/08/15 10:35:45;;;;;;;6.97;4.03;;;33.50;48.50;;;32.47;29.93;99075.81;10272866;28;98798;-83
2022/08/15 10:41:31;;;;;;;5.53;4.03;;;33.60;47.80;;;32.69;30.17;99077.34;10277587;28;98144;-82
2022/08/15 10:46:51;;;;;;;4.75;3.80;;;33.80;47.20;;;32.96;28.69;99073.13;10264521;28;97506;-83
2022/08/15 10:53:07;;;;;;;4.10;3.60;;;34.10;45.90;;;33.18;27.32;99064.41;10255988;28;98746;-85
2022/08/15 10:58:25;;;;;;;3.50;2.95;;;34.30;44.70;;;33.33;26.22;99062.09;10222442;28;98742;-84
2022/08/15 11:03:50;;;;;;;3.95;3.30;;;34.40;43.80;;;33.45;26.72;99062.09;10269928;28;97158;-85
2022/08/15 11:09:18;;;;;;;4.72;3.00;;;34.60;43.90;;;33.60;26.00;99055.88;10274524;28;97354;-85
2022/08/15 11:14:30;;;;;;;3.72;3.33;;;34.70;43.10;;;33.63;25.38;99060.69;10266625;28;97517;-82
2022/08/15 11:19:42;;;;;;;4.97;3.40;;;34.70;42.70;;;33.82;25.32;99051.75;10268993;28;98936;-85
2022/08/15 11:25:13;;;;;;;3.88;3.08;;;34.90;42.50;;;33.93;24.71;99049.34;10253456;28;97143;-86
2022/08/15 11:30:23;;;;;;;4.13;2.90;;;35.10;41.70;;;33.93;23.75;99047.38;10262497;28;98508;-82
2022/08/15 11:35:33;;;;;;;3.93;2.80;;;35.10;41.10;;;33.87;24.36;99036.94;10274468;28;97072;-83
2022/08/15 11:40:41;;;;;;;4.03;3.15;;;35.20;40.90;;;34.06;24.45;99045.38;10286157;28;98781;-83
2022/08/15 11:45:49;;;;;;;6.13;2.90;;;35.20;41.00;;;34.18;24.69;99037.03;10265077;28;97554;-83
2022/08/15 11:51:16;;;;;;;3.97;2.70;;;35.40;41.30;;;34.41;23.59;99028.19;10274224;28;99047;-83
2022/08/15 11:56:24;;;;;;;5.72;2.55;;;35.60;40.80;;;34.65;22.81;99032.75;10265938;28;99061;-83
2022/08/15 12:02:27;;;;;;;3.10;2.80;;;35.80;40.10;;;35.04;22.80;99029.00;10248858;28;97494;-83
2022/08/15 12:07:47;;;;;;;3.03;2.60;;;36.10;39.70;;;35.15;22.43;99015.44;10279678;28;97464;-83
2022/08/15 12:12:52;;;;;;;3.22;2.90;;;36.40;39.20;;;35.22;21.76;99009.28;10263237;28;96683;-83
2022/08/15 12:18:12;;;;;;;4.20;2.40;;;36.70;38.80;;;35.53;21.39;99016.69;10263597;28;98631;-82
2022/08/15 12:23:55;;;;;;;5.45;2.85;;;37.00;38.60;;;35.18;21.52;99011.94;10258524;28;98245;-82
2022/08/15 12:28:58;;;;;;;4.63;2.30;;;37.00;38.30;;;34.99;21.97;99004.44;10267203;28;96854;-86
2022/08/15 12:34:14;;;;;;;3.35;2.28;;;36.70;37.90;;;35.18;20.95;98997.34;10263296;28;98536;-82
2022/08/15 12:39:39;;;;;;;3.05;2.28;;;37.00;37.50;;;35.40;20.74;98989.16;10274800;28;98614;-85
2022/08/15 12:44:48;;;;;;;2.65;2.40;;;37.40;37.10;;;35.61;20.32;98999.88;10279247;28;97437;-84
2022/08/15 12:49:52;;;;;;;3.38;2.55;;;37.40;36.20;;;35.89;20.05;98985.81;10286515;28;96962;-85
2022/08/15 12:54:54;;;;;;;3.40;2.20;;;37.40;36.60;;;36.11;19.62;98981.53;10279637;28;97780;-85
2022/08/15 12:59:59;;;;;;;2.97;1.90;;;37.50;36.10;;;36.33;19.32;98993.72;10258491;28;97502;-85
2022/08/15 13:05:07;;;;;;;2.30;2.10;;;37.50;36.00;;;36.36;19.28;98970.88;10272802;28;97238;-84
2022/08/15 13:10:19;;;;;;;3.38;2.20;;;37.50;36.30;;;36.56;19.75;98979.13;10258847;28;97020;-84
2022/08/15 13:15:42;;;;;;;2.60;2.35;;;37.50;36.50;;;36.66;19.47;98967.44;10253170;28;98536;-84
2022/08/15 13:26:16;;;;;;;5.13;3.47;;;37.30;36.80;;;36.22;20.38;98959.56;10269016;28;98704;-82
2022/08/15 13:31:31;;;;;;;3.85;2.70;;;37.10;37.40;;;36.08;20.66;98957.34;10251674;28;98280;-82
2022/08/15 13:36:35;;;;;;;3.92;2.47;;;37.00;37.20;;;36.09;21.24;98950.66;10275787;28;96651;-84
2022/08/15 13:41:58;;;;;;;3.15;2.85;;;37.00;37.50;;;36.18;21.04;98950.44;10276258;28;97498;-82
2022/08/15 13:47:24;;;;;;;3.15;2.85;;;37.10;37.40;;;36.17;20.79;98935.81;10276876;28;97225;-84
2022/08/15 13:52:45;;;;;;;4.53;2.58;;;37.20;37.40;;;36.03;21.39;98941.06;10272877;28;97457;-82
2022/08/15 13:57:53;;;;;;;3.85;2.30;;;37.10;37.60;;;35.92;20.79;98935.34;10256993;28;98932;-84
2022/08/15 14:03:07;;;;;;;4.80;2.97;;;37.10;37.30;;;35.31;21.97;98943.59;10264090;28;99557;-84
2022/08/15 14:08:20;;;;;;;2.83;2.42;;;36.50;37.80;;;35.12;21.26;98939.66;10252404;28;97631;-85
2022/08/15 14:13:34;;;;;;;3.75;2.80;;;36.30;37.80;;;35.21;21.65;98931.19;10278827;28;97586;-85
2022/08/15 14:18:39;;;;;;;3.85;2.50;;;36.40;37.80;;;35.08;21.48;98937.97;10270325;28;98470;-83
2022/08/15 14:23:57;;;;;;;4.65;2.92;;;36.40;37.60;;;35.19;21.86;98930.72;10271001;28;98566;-84
2022/08/15 14:29:08;;;;;;;3.70;2.93;;;36.50;37.70;;;35.17;21.68;98929.50;10253803;28;97798;-85
2022/08/15 14:34:12;;;;;;;4.15;2.70;;;36.50;37.60;;;35.43;21.99;98931.63;10257859;28;98491;-85
2022/08/15 14:39:36;;;;;;;3.55;2.38;;;36.60;37.80;;;35.56;20.95;98922.81;10262678;28;96720;-86
2022/08/15 14:44:43;;;;;;;2.63;2.42;;;36.70;36.90;;;35.78;20.80;98918.50;10255153;28;98598;-86
2022/08/15 14:49:51;;;;;;;4.30;2.47;;;36.80;37.10;;;35.99;20.81;98917.28;10285987;28;97523;-85
2022/08/15 14:55:15;;;;;;;2.88;2.58;;;36.90;37.20;;;36.03;21.02;98924.47;10248433;28;99799;-86
2022/08/15 15:00:19;;;;;;;3.65;2.67;;;37.00;37.30;;;36.08;21.06;98915.09;10270258;28;97905;-85
2022/08/15 15:05:33;;;;;;;3.20;2.85;;;37.10;37.60;;;36.07;20.63;98921.78;10282712;28;96727;-85
2022/08/15 15:10:56;;;;;;;5.13;2.67;;;37.00;37.10;;;36.04;20.59;98925.28;10260909;28;98753;-85
2022/08/15 15:16:00;;;;;;;3.72;2.85;;;37.10;37.20;;;35.84;20.89;98928.06;10260582;28;97297;-85
2022/08/15 15:21:24;;;;;;;5.32;2.80;;;36.90;37.20;;;35.76;21.10;98937.41;10265760;28;98735;-85
2022/08/15 15:26:29;;;;;;;3.17;2.63;;;36.70;37.30;;;35.82;21.27;98924.88;10261330;28;98996;-84
2022/08/15 15:31:41;;;;;;;3.50;2.67;;;36.70;37.40;;;35.88;21.02;98931.72;10262938;28;96643;-86
2022/08/15 15:36:47;;;;;;;3.97;2.72;;;36.80;38.10;;;35.82;20.79;98927.66;10260732;28;99092;-86
2022/08/15 15:41:56;;;;;;;2.65;2.42;;;36.80;37.30;;;35.60;20.98;98922.88;10274792;28;97125;-86
2022/08/15 15:47:10;;;;;;;4.55;2.95;;;36.60;37.20;;;35.18;21.07;98931.88;10262280;28;97401;-86
2022/08/15 15:52:18;;;;;;;3.80;3.10;;;36.30;37.30;;;34.53;21.95;98934.34;10280423;28;98429;-85
2022/08/15 15:57:22;;;;;;;3.50;3.05;;;35.70;37.60;;;33.88;22.83;98937.38;10284275;28;97943;-86
2022/08/15 16:02:28;;;;;;;5.78;3.33;;;35.20;38.20;;;33.30;23.40;98936.97;10262066;28;96966;-86
2022/08/15 16:07:40;;;;;;;5.10;2.50;;;34.50;38.70;;;32.75;24.37;98942.00;10254958;28;98431;-86
2022/08/15 16:13:00;;;;;;;3.63;2.85;;;33.90;39.20;;;32.32;24.63;98941.72;10273726;28;96664;-86
2022/08/15 16:18:17;;;;;;;3.30;2.80;;;33.50;39.80;;;32.06;25.40;98944.78;10249111;28;98216;-86
2022/08/15 16:23:36;;;;;;;5.43;2.70;;;33.20;40.40;;;31.79;25.63;98947.03;10262915;28;98544;-85
2022/08/15 16:29:15;;;;;;;3.72;2.63;;;32.90;40.60;;;31.61;26.27;98946.38;10263138;28;98880;-84
2022/08/15 16:34:34;;;;;;;2.83;2.60;;;32.70;41.00;;;31.56;26.81;98949.31;10266781;28;97486;-86
2022/08/15 16:39:47;;;;;;;6.10;3.00;;;32.60;41.60;;;31.53;26.91;98944.50;10271751;28;96867;-85
2022/08/15 16:45:20;;;;;;;3.83;2.70;;;32.50;41.90;;;31.47;27.32;98945.84;10273530;28;97493;-85
2022/08/15 16:50:45;;;;;;;3.05;2.55;;;32.40;42.20;;;31.32;27.97;98955.50;10264459;28;99184;-84
2022/08/15 16:56:20;;;;;;;3.17;2.58;;;32.30;42.70;;;31.14;28.44;98954.00;10270165;28;99011;-85
2022/08/15 17:02:02;;;;;;;4.35;2.42;;;32.10;43.10;;;31.00;29.26;98967.16;10270347;28;98453;-84
2022/08/15 17:07:55;;;;;;;5.45;2.67;;;32.00;43.90;;;30.82;29.41;98959.03;10266320;28;97196;-84
2022/08/15 17:13:26;;;;;;;4.13;2.60;;;31.80;44.00;;;30.69;29.57;98962.03;10250440;28;97664;-85
2022/08/15 17:18:56;;;;;;;7.90;2.60;;;31.60;44.30;;;30.56;29.59;98964.66;10287496;28;97099;-85
2022/08/15 17:24:27;;;;;;;3.78;2.40;;;31.50;44.40;;;30.42;30.09;98982.47;10283231;28;98406;-85
2022/08/15 17:30:10;;;;;;;6.65;2.88;;;31.40;44.80;;;30.27;30.34;98981.84;10273850;28;96810;-85
2022/08/15 17:35:33;;;;;;;16.55;3.45;;;31.20;44.70;;;30.16;30.50;98991.56;10277666;28;97864;-85
2022/08/15 17:40:47;;;;;;;8.43;4.00;;;31.10;44.90;;;30.09;30.71;98996.72;10252314;28;97020;-85
2022/08/15 17:46:01;;;;;;;6.95;3.22;;;31.10;45.30;;;30.01;30.88;99001.09;10275723;28;98443;-85
2022/08/15 17:51:18;;;;;;;7.78;2.85;;;30.90;45.40;;;29.90;31.15;98999.81;10255832;28;97170;-85
2022/08/15 17:56:54;;;;;;;5.22;2.90;;;30.90;45.60;;;29.72;31.67;99025.59;10265199;28;98137;-85
2022/08/15 18:01:58;;;;;;;5.65;2.78;;;30.80;46.00;;;29.56;32.09;99028.00;10254645;28;96867;-85
2022/08/15 18:07:03;;;;;;;5.20;3.20;;;30.60;46.20;;;29.41;32.47;99034.75;10236757;28;96997;-85
2022/08/15 18:12:11;;;;;;;4.82;3.33;;;30.50;46.80;;;29.23;32.66;99053.06;10287237;28;97027;-85
2022/08/15 18:17:30;;;;;;;5.22;3.15;;;30.30;47.10;;;29.10;33.41;99054.00;10261859;28;97350;-85
2022/08/15 18:22:35;;;;;;;6.78;3.35;;;30.20;47.40;;;28.92;33.87;99052.31;10274380;28;96703;-85
2022/08/15 18:27:48;;;;;;;7.45;3.20;;;30.10;47.80;;;28.77;34.55;99067.22;10257945;28;97038;-85
2022/08/15 18:33:17;;;;;;;5.97;3.30;;;29.90;48.20;;;28.56;34.89;99061.50;10283426;28;96647;-85
2022/08/15 18:38:24;;;;;;;3.67;3.28;;;29.70;48.90;;;28.39;35.15;99062.22;10273043;28;98667;-85
2022/08/15 18:43:58;;;;;;;4.72;3.17;;;29.50;49.10;;;28.21;35.51;99077.66;10276567;28;96667;-85
2022/08/15 18:49:17;;;;;;;4.45;3.33;;;29.20;49.50;;;28.07;35.82;99084.28;10281801;28;97997;-85
2022/08/15 18:54:45;;;;;;;3.50;2.75;;;29.10;49.80;;;27.88;36.41;99082.53;10274282;28;96674;-85
2022/08/15 19:00:30;;;;;;;6.10;2.97;;;28.90;50.20;;;27.74;36.66;99095.44;10239726;28;96531;-85
2022/08/15 19:05:47;;;;;;;4.10;2.63;;;28.70;50.40;;;27.63;37.18;99107.66;10246891;28;99363;-85
2022/08/15 19:10:55;;;;;;;5.85;3.42;;;28.60;50.80;;;27.47;37.61;99108.03;10256577;28;97429;-85
2022/08/15 19:16:18;;;;;;;5.68;3.17;;;28.50;51.10;;;27.34;37.50;99113.47;10280396;28;97297;-84
2022/08/15 19:21:32;;;;;;;4.07;3.00;;;28.40;51.10;;;27.23;37.73;99107.44;10284939;28;96855;-85
2022/08/15 19:26:56;;;;;;;6.72;3.00;;;28.30;51.30;;;27.15;37.76;99119.03;10261667;28;97133;-84
2022/08/15 19:32:24;;;;;;;5.90;3.22;;;28.20;51.50;;;27.02;38.15;99122.56;10281671;28;98259;-84
2022/08/15 19:37:42;;;;;;;8.88;3.22;;;28.10;51.70;;;26.95;38.64;99125.69;10259677;28;97239;-85
2022/08/15 19:43:23;;;;;;;6.50;2.70;;;28.00;52.10;;;26.85;39.15;99128.59;10280600;28;97184;-84
2022/08/15 19:51:19;;;;;;;3.88;3.00;;;27.90;52.20;;;26.72;38.99;99134.84;10267430;28;98046;-84
2022/08/15 19:55:08;;;;;;;;;;;27.80;52.50;;;26.60;39.35;99127.13;10264211;28;98095;-84
2022/08/15 20:00:49;;;;;;;4.20;2.80;;;27.70;52.80;;;26.46;39.63;99126.31;10268550;28;97190;-84
2022/08/15 20:06:05;;;;;;;6.25;2.70;;;27.60;52.90;;;26.33;40.21;99131.38;10283178;28;98997;-85
2022/08/15 20:11:47;;;;;;;6.15;3.15;;;27.40;53.30;;;26.21;40.92;99138.38;10288402;28;97118;-85
2022/08/15 20:17:21;;;;;;;8.85;3.42;;;27.30;53.70;;;26.12;41.15;99140.97;10253290;28;98004;-85
2022/08/15 20:23:25;;;;;;;7.22;3.60;;;27.20;54.00;;;26.03;41.51;99140.84;10280518;28;98553;-84
2022/08/15 20:28:52;;;;;;;6.63;3.25;;;27.10;54.60;;;25.93;41.05;99151.06;10275676;28;96694;-84
2022/08/15 20:34:04;;;;;;;7.28;3.58;;;27.00;54.60;;;25.83;41.78;99158.25;10251698;28;97744;-84
2022/08/15 20:39:16;;;;;;;5.88;2.78;;;26.90;54.80;;;25.76;41.27;99157.00;10262203;28;97603;-85
2022/08/15 20:44:41;;;;;;;5.13;2.92;;;26.80;54.50;;;25.67;41.36;99154.13;10273562;28;97226;-86
2022/08/15 20:49:50;;;;;;;4.60;2.80;;;26.80;54.50;;;25.61;41.64;99166.97;10254466;28;97761;-86
2022/08/15 20:54:55;;;;;;;3.35;3.00;;;26.60;54.40;;;25.52;41.61;99163.28;10267804;28;96806;-85
2022/08/15 21:00:11;;;;;;;4.68;3.13;;;26.60;54.90;;;25.51;42.14;99169.00;10259771;28;96916;-86
2022/08/15 21:06:01;;;;;;;3.35;2.60;;;26.60;55.00;;;25.44;42.57;99174.00;10285036;28;97574;-87
2022/08/15 21:11:57;;;;;;;6.00;3.40;;;26.50;55.30;;;25.35;42.74;99174.63;10255256;28;97612;-86
2022/08/15 21:17:48;;;;;;;6.38;4.65;;;26.40;55.70;;;25.24;43.20;99170.38;10210834;28;97206;-86
2022/08/15 21:23:12;;;;;;;4.15;3.30;;;26.30;55.90;;;25.14;43.19;99184.13;10277865;28;97376;-86
2022/08/15 21:28:35;;;;;;;5.53;3.20;;;26.20;56.00;;;24.98;43.39;99179.91;10282395;28;96654;-87
2022/08/15 21:33:41;;;;;;;21.27;15.10;;;26.10;56.00;;;24.90;43.35;99183.25;10247975;28;98544;-86
2022/08/15 21:39:09;;;;;;;7.25;5.47;;;26.00;56.10;;;24.82;43.63;99193.63;10265004;28;98739;-86
2022/08/15 21:44:41;;;;;;;6.30;4.45;;;25.90;56.20;;;24.72;43.83;99195.63;10266903;28;97628;-86
2022/08/15 21:49:51;;;;;;;5.03;4.10;;;25.80;56.50;;;24.67;43.92;99198.41;10286192;28;97020;-85
2022/08/15 21:55:13;;;;;;;4.88;3.78;;;25.70;56.50;;;24.62;44.05;99199.25;10277709;28;98340;-86
2022/08/15 22:00:24;;;;;;;10.03;6.03;;;25.70;56.90;;;24.56;44.69;99194.94;10264366;28;97925;-86
2022/08/15 22:05:57;;;;;;;5.77;4.50;;;25.70;57.20;;;24.51;44.94;99198.50;10257310;28;96669;-87
2022/08/15 22:11:21;;;;;;;6.28;4.32;;;25.60;57.60;;;24.43;45.18;99204.56;10249740;28;99429;-86
2022/08/15 22:16:30;;;;;;;4.85;3.70;;;25.50;57.50;;;24.32;45.07;99199.44;10250107;28;97318;-86
2022/08/15 22:21:45;;;;;;;4.47;3.53;;;25.40;57.50;;;24.22;45.59;99203.03;10259872;28;97241;-85
2022/08/15 22:26:50;;;;;;;5.97;3.90;;;25.40;57.90;;;24.12;46.22;99203.13;10290561;28;97258;-86